sensor_id;sensor_type;location;lat;lon;timestamp;temperature;humidity
6106;DHT22;3083;51.508;7.966;2022-07-23T00:00:23;16.50;99.90
6106;DHT22;3083;51.508;7.966;2022-07-23T00:02:50;16.60;99.90
6106;DHT22;3083;51.508;7.966;2022-07-23T00:05:17;16.60;99.90
6106;DHT22;3083;51.508;7.966;2022-07-23T00:07:44;16.60;99.90
6106;DHT22;3083;51.508;7.966;2022-07-23T00:10:11;16.70;99.90
6106;DHT22;3083;51.508;7.966;2022-07-23T00:12:39;16.70;99.90
6106;DHT22;3083;51.508;7.966;2022-07-23T00:15:09;16.70;99.90
6106;DHT22;3083;51.508;7.966;2022-07-23T00:17:36;16.70;99.90
6106;DHT22;3083;51.508;7.966;2022-07-23T00:20:04;16.60;99.90
6106;DHT22;3083;51.508;7.966;2022-07-23T00:22:31;16.60;99.90
6106;DHT22;3083;51.508;7.966;2022-07-23T00:24:58;16.60;99.90
6106;DHT22;3083;51.508;7.966;2022-07-23T00:27:25;16.50;99.90
6106;DHT22;3083;51.508;7.966;2022-07-23T00:29:52;16.50;99.90
6106;DHT22;3083;51.508;7.966;2022-07-23T00:32:20;16.50;99.90
6106;DHT22;3083;51.508;7.966;2022-07-23T00:34:47;16.40;99.90
6106;DHT22;3083;51.508;7.966;2022-07-23T00:37:14;16.40;99.90
6106;DHT22;3083;51.508;7.966;2022-07-23T00:39:41;16.40;99.90
6106;DHT22;3083;51.508;7.966;2022-07-23T00:42:08;16.40;99.90
6106;DHT22;3083;51.508;7.966;2022-07-23T00:44:35;16.40;99.90
6106;DHT22;3083;51.508;7.966;2022-07-23T00:47:02;16.50;99.90
6106;DHT22;3083;51.508;7.966;2022-07-23T00:49:32;16.50;99.90
6106;DHT22;3083;51.508;7.966;2022-07-23T00:52:01;16.50;99.90
6106;DHT22;3083;51.508;7.966;2022-07-23T00:54:28;16.50;99.90
6106;DHT22;3083;51.508;7.966;2022-07-23T00:56:56;16.50;99.90
6106;DHT22;3083;51.508;7.966;2022-07-23T00:59:23;16.50;99.90
6106;DHT22;3083;51.508;7.966;2022-07-23T01:01:50;16.50;99.90
6106;DHT22;3083;51.508;7.966;2022-07-23T01:04:17;16.50;99.90
6106;DHT22;3083;51.508;7.966;2022-07-23T01:06:45;16.40;99.90
6106;DHT22;3083;51.508;7.966;2022-07-23T01:09:13;16.40;99.90
6106;DHT22;3083;51.508;7.966;2022-07-23T01:11:41;16.40;99.90
6106;DHT22;3083;51.508;7.966;2022-07-23T01:14:10;16.40;99.90
6106;DHT22;3083;51.508;7.966;2022-07-23T01:16:37;16.30;99.90
6106;DHT22;3083;51.508;7.966;2022-07-23T01:19:04;16.40;99.90
6106;DHT22;3083;51.508;7.966;2022-07-23T01:21:35;16.30;99.90
6106;DHT22;3083;51.508;7.966;2022-07-23T01:24:05;16.40;99.90
6106;DHT22;3083;51.508;7.966;2022-07-23T01:26:32;16.40;99.90
6106;DHT22;3083;51.508;7.966;2022-07-23T01:28:59;16.40;99.90
6106;DHT22;3083;51.508;7.966;2022-07-23T01:31:26;16.40;99.90
6106;DHT22;3083;51.508;7.966;2022-07-23T01:33:54;16.40;99.90
6106;DHT22;3083;51.508;7.966;2022-07-23T01:36:21;16.40;99.90
6106;DHT22;3083;51.508;7.966;2022-07-23T01:38:49;16.30;99.90
6106;DHT22;3083;51.508;7.966;2022-07-23T01:41:17;16.30;99.90
6106;DHT22;3083;51.508;7.966;2022-07-23T01:43:44;16.30;99.90
6106;DHT22;3083;51.508;7.966;2022-07-23T01:46:11;16.30;99.90
6106;DHT22;3083;51.508;7.966;2022-07-23T01:48:38;16.30;99.90
6106;DHT22;3083;51.508;7.966;2022-07-23T01:51:06;16.20;99.90
6106;DHT22;3083;51.508;7.966;2022-07-23T01:53:33;16.20;99.90
6106;DHT22;3083;51.508;7.966;2022-07-23T01:56:00;16.20;99.90
6106;DHT22;3083;51.508;7.966;2022-07-23T01:58:30;16.20;99.90
6106;DHT22;3083;51.508;7.966;2022-07-23T02:00:57;16.20;99.90
6106;DHT22;3083;51.508;7.966;2022-07-23T02:03:24;16.10;99.90
6106;DHT22;3083;51.508;7.966;2022-07-23T02:05:51;16.20;99.90
6106;DHT22;3083;51.508;7.966;2022-07-23T02:08:18;16.20;99.90
6106;DHT22;3083;51.508;7.966;2022-07-23T02:10:46;16.20;99.90
6106;DHT22;3083;51.508;7.966;2022-07-23T02:13:14;16.20;99.90
6106;DHT22;3083;51.508;7.966;2022-07-23T02:15:42;16.20;99.90
6106;DHT22;3083;51.508;7.966;2022-07-23T02:18:09;16.20;99.90
6106;DHT22;3083;51.508;7.966;2022-07-23T02:20:36;16.20;99.90
6106;DHT22;3083;51.508;7.966;2022-07-23T02:23:05;16.20;99.90
6106;DHT22;3083;51.508;7.966;2022-07-23T02:25:32;16.20;99.90
6106;DHT22;3083;51.508;7.966;2022-07-23T02:27:59;16.20;99.90
6106;DHT22;3083;51.508;7.966;2022-07-23T02:30:26;16.20;99.90
6106;DHT22;3083;51.508;7.966;2022-07-23T02:32:55;16.20;99.90
6106;DHT22;3083;51.508;7.966;2022-07-23T02:35:22;16.20;99.90
6106;DHT22;3083;51.508;7.966;2022-07-23T02:37:49;16.20;99.90
6106;DHT22;3083;51.508;7.966;2022-07-23T02:40:16;16.20;99.90
6106;DHT22;3083;51.508;7.966;2022-07-23T02:42:43;16.10;99.90
6106;DHT22;3083;51.508;7.966;2022-07-23T02:45:11;16.10;99.90
6106;DHT22;3083;51.508;7.966;2022-07-23T02:47:38;16.10;99.90
6106;DHT22;3083;51.508;7.966;2022-07-23T02:50:08;16.10;99.90
6106;DHT22;3083;51.508;7.966;2022-07-23T02:52:35;16.10;99.90
6106;DHT22;3083;51.508;7.966;2022-07-23T02:55:02;16.00;99.90
6106;DHT22;3083;51.508;7.966;2022-07-23T02:57:30;15.90;99.90
6106;DHT22;3083;51.508;7.966;2022-07-23T02:59:57;15.90;99.90
6106;DHT22;3083;51.508;7.966;2022-07-23T03:02:24;15.90;99.90
6106;DHT22;3083;51.508;7.966;2022-07-23T03:04:51;15.80;99.90
6106;DHT22;3083;51.508;7.966;2022-07-23T03:07:19;15.70;99.90
6106;DHT22;3083;51.508;7.966;2022-07-23T03:09:46;15.80;99.90
6106;DHT22;3083;51.508;7.966;2022-07-23T03:12:13;15.70;99.90
6106;DHT22;3083;51.508;7.966;2022-07-23T03:14:40;15.70;99.90
6106;DHT22;3083;51.508;7.966;2022-07-23T03:17:07;15.60;99.90
6106;DHT22;3083;51.508;7.966;2022-07-23T03:19:34;15.60;99.90
6106;DHT22;3083;51.508;7.966;2022-07-23T03:22:02;15.50;99.90
6106;DHT22;3083;51.508;7.966;2022-07-23T03:24:30;15.50;99.90
6106;DHT22;3083;51.508;7.966;2022-07-23T03:27:11;15.40;99.90
6106;DHT22;3083;51.508;7.966;2022-07-23T03:29:38;15.40;99.90
6106;DHT22;3083;51.508;7.966;2022-07-23T03:32:05;15.40;99.90
6106;DHT22;3083;51.508;7.966;2022-07-23T03:34:33;15.40;99.90
6106;DHT22;3083;51.508;7.966;2022-07-23T03:36:59;15.40;99.90
6106;DHT22;3083;51.508;7.966;2022-07-23T03:39:26;15.40;99.90
6106;DHT22;3083;51.508;7.966;2022-07-23T03:41:55;15.50;99.90
6106;DHT22;3083;51.508;7.966;2022-07-23T03:44:22;15.50;99.90
6106;DHT22;3083;51.508;7.966;2022-07-23T03:46:49;15.50;99.90
6106;DHT22;3083;51.508;7.966;2022-07-23T03:49:16;15.60;99.90
6106;DHT22;3083;51.508;7.966;2022-07-23T03:51:43;15.60;99.90
6106;DHT22;3083;51.508;7.966;2022-07-23T03:54:10;15.60;99.90
6106;DHT22;3083;51.508;7.966;2022-07-23T03:56:37;15.60;99.90
6106;DHT22;3083;51.508;7.966;2022-07-23T03:59:06;15.60;99.90
6106;DHT22;3083;51.508;7.966;2022-07-23T04:01:33;15.60;99.90
6106;DHT22;3083;51.508;7.966;2022-07-23T04:04:00;15.60;99.90
6106;DHT22;3083;51.508;7.966;2022-07-23T04:06:27;15.60;99.90
6106;DHT22;3083;51.508;7.966;2022-07-23T04:08:53;15.60;99.90
6106;DHT22;3083;51.508;7.966;2022-07-23T04:11:21;15.60;99.90
6106;DHT22;3083;51.508;7.966;2022-07-23T04:13:48;15.70;99.90
6106;DHT22;3083;51.508;7.966;2022-07-23T04:16:16;15.70;99.90
6106;DHT22;3083;51.508;7.966;2022-07-23T04:18:43;15.60;99.90
6106;DHT22;3083;51.508;7.966;2022-07-23T04:21:10;15.70;99.90
6106;DHT22;3083;51.508;7.966;2022-07-23T04:23:37;15.70;99.90
6106;DHT22;3083;51.508;7.966;2022-07-23T04:26:04;15.70;99.90
6106;DHT22;3083;51.508;7.966;2022-07-23T04:28:31;15.80;99.90
6106;DHT22;3083;51.508;7.966;2022-07-23T04:30:59;15.80;99.90
6106;DHT22;3083;51.508;7.966;2022-07-23T04:33:27;15.80;99.90
6106;DHT22;3083;51.508;7.966;2022-07-23T04:35:54;15.80;99.90
6106;DHT22;3083;51.508;7.966;2022-07-23T04:38:21;15.90;99.90
6106;DHT22;3083;51.508;7.966;2022-07-23T04:40:48;15.90;99.90
6106;DHT22;3083;51.508;7.966;2022-07-23T04:43:15;16.00;99.90
6106;DHT22;3083;51.508;7.966;2022-07-23T04:45:42;16.00;99.90
6106;DHT22;3083;51.508;7.966;2022-07-23T04:48:09;16.10;99.90
6106;DHT22;3083;51.508;7.966;2022-07-23T04:50:37;16.10;99.90
6106;DHT22;3083;51.508;7.966;2022-07-23T04:53:04;16.20;99.90
6106;DHT22;3083;51.508;7.966;2022-07-23T04:55:32;16.30;99.90
6106;DHT22;3083;51.508;7.966;2022-07-23T04:57:59;16.40;99.90
6106;DHT22;3083;51.508;7.966;2022-07-23T05:00:26;16.40;99.90
6106;DHT22;3083;51.508;7.966;2022-07-23T05:02:53;16.40;99.90
6106;DHT22;3083;51.508;7.966;2022-07-23T05:05:20;16.50;99.90
6106;DHT22;3083;51.508;7.966;2022-07-23T05:07:49;16.50;99.90
6106;DHT22;3083;51.508;7.966;2022-07-23T05:10:16;16.60;99.90
6106;DHT22;3083;51.508;7.966;2022-07-23T05:12:43;16.60;99.90
6106;DHT22;3083;51.508;7.966;2022-07-23T05:15:10;16.70;99.90
6106;DHT22;3083;51.508;7.966;2022-07-23T05:17:37;16.70;99.90
6106;DHT22;3083;51.508;7.966;2022-07-23T05:20:05;16.70;99.90
6106;DHT22;3083;51.508;7.966;2022-07-23T05:22:32;16.70;99.90
6106;DHT22;3083;51.508;7.966;2022-07-23T05:25:01;16.70;99.90
6106;DHT22;3083;51.508;7.966;2022-07-23T05:27:28;16.70;99.90
6106;DHT22;3083;51.508;7.966;2022-07-23T05:29:56;16.70;99.90
6106;DHT22;3083;51.508;7.966;2022-07-23T05:32:23;16.80;99.90
6106;DHT22;3083;51.508;7.966;2022-07-23T05:34:50;16.80;99.90
6106;DHT22;3083;51.508;7.966;2022-07-23T05:37:17;16.90;99.90
6106;DHT22;3083;51.508;7.966;2022-07-23T05:39:44;16.90;99.90
6106;DHT22;3083;51.508;7.966;2022-07-23T05:42:12;16.90;99.90
6106;DHT22;3083;51.508;7.966;2022-07-23T05:44:39;16.90;99.90
6106;DHT22;3083;51.508;7.966;2022-07-23T05:47:06;17.00;99.90
6106;DHT22;3083;51.508;7.966;2022-07-23T05:49:33;17.00;99.90
6106;DHT22;3083;51.508;7.966;2022-07-23T05:52:04;17.00;99.90
6106;DHT22;3083;51.508;7.966;2022-07-23T05:54:33;17.10;99.90
6106;DHT22;3083;51.508;7.966;2022-07-23T05:57:00;17.10;99.90
6106;DHT22;3083;51.508;7.966;2022-07-23T05:59:29;17.10;99.90
6106;DHT22;3083;51.508;7.966;2022-07-23T06:01:56;17.10;99.90
6106;DHT22;3083;51.508;7.966;2022-07-23T06:04:23;17.10;99.90
6106;DHT22;3083;51.508;7.966;2022-07-23T06:06:50;17.10;99.90
6106;DHT22;3083;51.508;7.966;2022-07-23T06:09:17;17.20;99.90
6106;DHT22;3083;51.508;7.966;2022-07-23T06:11:44;17.20;99.90
6106;DHT22;3083;51.508;7.966;2022-07-23T06:14:11;17.30;99.90
6106;DHT22;3083;51.508;7.966;2022-07-23T06:16:39;17.30;99.90
6106;DHT22;3083;51.508;7.966;2022-07-23T06:19:06;17.30;99.90
6106;DHT22;3083;51.508;7.966;2022-07-23T06:21:33;17.30;99.90
6106;DHT22;3083;51.508;7.966;2022-07-23T06:24:00;17.40;99.90
6106;DHT22;3083;51.508;7.966;2022-07-23T06:26:27;17.40;99.90
6106;DHT22;3083;51.508;7.966;2022-07-23T06:28:54;17.50;99.90
6106;DHT22;3083;51.508;7.966;2022-07-23T06:31:21;17.60;99.90
6106;DHT22;3083;51.508;7.966;2022-07-23T06:33:50;17.70;99.90
6106;DHT22;3083;51.508;7.966;2022-07-23T06:36:17;17.70;99.90
6106;DHT22;3083;51.508;7.966;2022-07-23T06:38:44;17.90;99.90
6106;DHT22;3083;51.508;7.966;2022-07-23T06:41:11;18.10;99.90
6106;DHT22;3083;51.508;7.966;2022-07-23T06:43:38;18.20;99.90
6106;DHT22;3083;51.508;7.966;2022-07-23T06:46:05;18.40;99.90
6106;DHT22;3083;51.508;7.966;2022-07-23T06:48:31;18.50;99.90
6106;DHT22;3083;51.508;7.966;2022-07-23T06:51:01;18.60;99.90
6106;DHT22;3083;51.508;7.966;2022-07-23T06:53:29;18.60;99.90
6106;DHT22;3083;51.508;7.966;2022-07-23T06:55:56;18.60;99.90
6106;DHT22;3083;51.508;7.966;2022-07-23T06:58:22;18.60;99.90
6106;DHT22;3083;51.508;7.966;2022-07-23T07:00:50;18.60;99.90
6106;DHT22;3083;51.508;7.966;2022-07-23T07:03:17;18.80;99.90
6106;DHT22;3083;51.508;7.966;2022-07-23T07:05:44;18.90;99.90
6106;DHT22;3083;51.508;7.966;2022-07-23T07:08:13;18.90;99.90
6106;DHT22;3083;51.508;7.966;2022-07-23T07:10:40;18.90;99.90
6106;DHT22;3083;51.508;7.966;2022-07-23T07:13:07;19.10;99.90
6106;DHT22;3083;51.508;7.966;2022-07-23T07:15:34;19.10;99.90
6106;DHT22;3083;51.508;7.966;2022-07-23T07:18:01;19.10;99.90
6106;DHT22;3083;51.508;7.966;2022-07-23T07:20:28;19.10;99.90
6106;DHT22;3083;51.508;7.966;2022-07-23T07:22:55;19.00;99.90
6106;DHT22;3083;51.508;7.966;2022-07-23T07:25:23;19.00;99.90
6106;DHT22;3083;51.508;7.966;2022-07-23T07:27:51;19.00;99.90
6106;DHT22;3083;51.508;7.966;2022-07-23T07:30:18;19.10;99.90
6106;DHT22;3083;51.508;7.966;2022-07-23T07:32:45;19.30;99.90
6106;DHT22;3083;51.508;7.966;2022-07-23T07:35:12;19.40;99.90
6106;DHT22;3083;51.508;7.966;2022-07-23T07:37:39;19.60;99.90
6106;DHT22;3083;51.508;7.966;2022-07-23T07:40:07;19.60;99.90
6106;DHT22;3083;51.508;7.966;2022-07-23T07:42:44;19.70;99.90
6106;DHT22;3083;51.508;7.966;2022-07-23T07:45:11;19.80;99.90
6106;DHT22;3083;51.508;7.966;2022-07-23T07:47:38;19.80;99.90
6106;DHT22;3083;51.508;7.966;2022-07-23T07:50:05;19.80;99.90
6106;DHT22;3083;51.508;7.966;2022-07-23T07:52:33;19.90;99.90
6106;DHT22;3083;51.508;7.966;2022-07-23T07:55:04;20.00;99.90
6106;DHT22;3083;51.508;7.966;2022-07-23T07:57:32;20.20;99.90
6106;DHT22;3083;51.508;7.966;2022-07-23T08:00:00;20.20;99.90
6106;DHT22;3083;51.508;7.966;2022-07-23T08:02:27;20.10;99.90
6106;DHT22;3083;51.508;7.966;2022-07-23T08:04:54;20.10;99.90
6106;DHT22;3083;51.508;7.966;2022-07-23T08:07:22;20.20;99.90
6106;DHT22;3083;51.508;7.966;2022-07-23T08:09:49;20.40;99.90
6106;DHT22;3083;51.508;7.966;2022-07-23T08:12:16;20.80;99.90
6106;DHT22;3083;51.508;7.966;2022-07-23T08:14:43;21.30;99.90
6106;DHT22;3083;51.508;7.966;2022-07-23T08:17:12;21.90;99.90
6106;DHT22;3083;51.508;7.966;2022-07-23T08:19:39;22.50;99.90
6106;DHT22;3083;51.508;7.966;2022-07-23T08:22:05;23.10;99.90
6106;DHT22;3083;51.508;7.966;2022-07-23T08:24:32;23.10;99.90
6106;DHT22;3083;51.508;7.966;2022-07-23T08:26:59;22.90;99.90
6106;DHT22;3083;51.508;7.966;2022-07-23T08:29:26;22.60;99.90
6106;DHT22;3083;51.508;7.966;2022-07-23T08:31:53;22.80;99.90
6106;DHT22;3083;51.508;7.966;2022-07-23T08:34:21;23.10;99.90
6106;DHT22;3083;51.508;7.966;2022-07-23T08:36:48;23.30;99.90
6106;DHT22;3083;51.508;7.966;2022-07-23T08:39:15;23.40;99.90
6106;DHT22;3083;51.508;7.966;2022-07-23T08:41:42;23.70;99.90
6106;DHT22;3083;51.508;7.966;2022-07-23T08:44:09;23.90;99.90
6106;DHT22;3083;51.508;7.966;2022-07-23T08:46:37;24.20;99.90
6106;DHT22;3083;51.508;7.966;2022-07-23T08:49:05;24.50;99.90
6106;DHT22;3083;51.508;7.966;2022-07-23T08:51:34;24.70;99.90
6106;DHT22;3083;51.508;7.966;2022-07-23T08:54:01;24.80;99.90
6106;DHT22;3083;51.508;7.966;2022-07-23T08:56:29;25.00;99.90
6106;DHT22;3083;51.508;7.966;2022-07-23T08:58:57;25.10;99.90
6106;DHT22;3083;51.508;7.966;2022-07-23T09:01:24;25.00;99.90
6106;DHT22;3083;51.508;7.966;2022-07-23T09:03:51;25.20;99.90
6106;DHT22;3083;51.508;7.966;2022-07-23T09:06:18;25.40;99.90
6106;DHT22;3083;51.508;7.966;2022-07-23T09:08:46;25.50;99.90
6106;DHT22;3083;51.508;7.966;2022-07-23T09:11:16;25.30;99.90
6106;DHT22;3083;51.508;7.966;2022-07-23T09:13:46;25.00;99.90
6106;DHT22;3083;51.508;7.966;2022-07-23T09:16:15;24.80;99.90
6106;DHT22;3083;51.508;7.966;2022-07-23T09:18:45;24.80;99.90
6106;DHT22;3083;51.508;7.966;2022-07-23T09:21:19;25.00;99.90
6106;DHT22;3083;51.508;7.966;2022-07-23T09:23:51;24.90;99.90
6106;DHT22;3083;51.508;7.966;2022-07-23T09:26:22;24.50;99.90
6106;DHT22;3083;51.508;7.966;2022-07-23T09:28:55;24.10;99.90
6106;DHT22;3083;51.508;7.966;2022-07-23T09:31:24;23.90;99.90
6106;DHT22;3083;51.508;7.966;2022-07-23T09:33:51;23.80;99.90
6106;DHT22;3083;51.508;7.966;2022-07-23T09:36:28;23.80;99.90
6106;DHT22;3083;51.508;7.966;2022-07-23T09:38:56;24.20;99.90
6106;DHT22;3083;51.508;7.966;2022-07-23T09:41:23;24.30;99.90
6106;DHT22;3083;51.508;7.966;2022-07-23T09:43:56;24.30;99.90
6106;DHT22;3083;51.508;7.966;2022-07-23T09:46:26;24.40;99.90
6106;DHT22;3083;51.508;7.966;2022-07-23T09:48:53;24.40;99.90
6106;DHT22;3083;51.508;7.966;2022-07-23T09:51:22;24.30;99.90
6106;DHT22;3083;51.508;7.966;2022-07-23T09:54:21;24.20;99.90
6106;DHT22;3083;51.508;7.966;2022-07-23T09:56:48;24.00;99.90
6106;DHT22;3083;51.508;7.966;2022-07-23T09:59:16;24.10;99.90
6106;DHT22;3083;51.508;7.966;2022-07-23T10:01:44;24.20;99.90
6106;DHT22;3083;51.508;7.966;2022-07-23T10:04:12;24.10;99.90
6106;DHT22;3083;51.508;7.966;2022-07-23T10:06:39;24.20;99.90
6106;DHT22;3083;51.508;7.966;2022-07-23T10:09:09;24.30;99.90
6106;DHT22;3083;51.508;7.966;2022-07-23T10:11:38;24.50;99.90
6106;DHT22;3083;51.508;7.966;2022-07-23T10:14:06;24.70;99.90
6106;DHT22;3083;51.508;7.966;2022-07-23T10:16:33;24.80;99.90
6106;DHT22;3083;51.508;7.966;2022-07-23T10:19:01;25.00;99.90
6106;DHT22;3083;51.508;7.966;2022-07-23T10:21:41;25.10;99.90
6106;DHT22;3083;51.508;7.966;2022-07-23T10:24:18;25.40;99.90
6106;DHT22;3083;51.508;7.966;2022-07-23T10:27:00;25.60;99.90
6106;DHT22;3083;51.508;7.966;2022-07-23T10:29:39;25.50;99.90
6106;DHT22;3083;51.508;7.966;2022-07-23T10:32:16;25.40;99.90
6106;DHT22;3083;51.508;7.966;2022-07-23T10:34:49;25.40;99.90
6106;DHT22;3083;51.508;7.966;2022-07-23T10:37:25;25.30;99.90
6106;DHT22;3083;51.508;7.966;2022-07-23T10:40:14;25.20;99.90
6106;DHT22;3083;51.508;7.966;2022-07-23T10:42:43;25.00;99.90
6106;DHT22;3083;51.508;7.966;2022-07-23T10:45:25;25.00;99.90
6106;DHT22;3083;51.508;7.966;2022-07-23T10:47:53;25.10;99.90
6106;DHT22;3083;51.508;7.966;2022-07-23T10:50:23;25.10;99.90
6106;DHT22;3083;51.508;7.966;2022-07-23T10:53:14;25.20;99.90
6106;DHT22;3083;51.508;7.966;2022-07-23T10:55:47;25.30;99.90
6106;DHT22;3083;51.508;7.966;2022-07-23T10:58:19;25.30;99.90
6106;DHT22;3083;51.508;7.966;2022-07-23T11:00:46;25.10;99.90
6106;DHT22;3083;51.508;7.966;2022-07-23T11:03:31;24.90;99.90
6106;DHT22;3083;51.508;7.966;2022-07-23T11:05:59;24.50;99.90
6106;DHT22;3083;51.508;7.966;2022-07-23T11:08:26;24.30;99.90
6106;DHT22;3083;51.508;7.966;2022-07-23T11:11:07;24.50;99.90
6106;DHT22;3083;51.508;7.966;2022-07-23T11:13:45;24.80;99.90
6106;DHT22;3083;51.508;7.966;2022-07-23T11:16:24;25.10;99.90
6106;DHT22;3083;51.508;7.966;2022-07-23T11:18:57;25.30;99.90
6106;DHT22;3083;51.508;7.966;2022-07-23T11:21:43;25.70;99.90
6106;DHT22;3083;51.508;7.966;2022-07-23T11:24:13;26.00;99.90
6106;DHT22;3083;51.508;7.966;2022-07-23T11:29:44;26.10;99.90
6106;DHT22;3083;51.508;7.966;2022-07-23T11:32:32;26.10;99.90
6106;DHT22;3083;51.508;7.966;2022-07-23T11:35:01;26.40;99.90
6106;DHT22;3083;51.508;7.966;2022-07-23T11:37:33;26.50;99.90
6106;DHT22;3083;51.508;7.966;2022-07-23T11:40:04;26.60;99.90
6106;DHT22;3083;51.508;7.966;2022-07-23T11:42:38;26.50;99.90
6106;DHT22;3083;51.508;7.966;2022-07-23T11:45:07;26.30;99.90
6106;DHT22;3083;51.508;7.966;2022-07-23T11:47:34;26.10;99.90
6106;DHT22;3083;51.508;7.966;2022-07-23T11:50:04;25.90;99.90
6106;DHT22;3083;51.508;7.966;2022-07-23T11:52:32;26.00;99.90
6106;DHT22;3083;51.508;7.966;2022-07-23T11:55:01;26.30;99.90
6106;DHT22;3083;51.508;7.966;2022-07-23T11:57:30;26.30;99.90
6106;DHT22;3083;51.508;7.966;2022-07-23T12:00:03;26.60;99.90
6106;DHT22;3083;51.508;7.966;2022-07-23T12:02:31;26.90;99.90
6106;DHT22;3083;51.508;7.966;2022-07-23T12:04:58;27.10;99.90
6106;DHT22;3083;51.508;7.966;2022-07-23T12:07:26;27.20;99.90
6106;DHT22;3083;51.508;7.966;2022-07-23T12:09:54;27.30;99.90
6106;DHT22;3083;51.508;7.966;2022-07-23T12:12:21;27.30;99.90
6106;DHT22;3083;51.508;7.966;2022-07-23T12:14:50;27.30;99.90
6106;DHT22;3083;51.508;7.966;2022-07-23T12:17:19;27.40;99.90
6106;DHT22;3083;51.508;7.966;2022-07-23T12:19:47;27.60;99.90
6106;DHT22;3083;51.508;7.966;2022-07-23T12:22:15;27.60;99.90
6106;DHT22;3083;51.508;7.966;2022-07-23T12:24:56;27.50;99.90
6106;DHT22;3083;51.508;7.966;2022-07-23T12:27:24;27.50;99.90
6106;DHT22;3083;51.508;7.966;2022-07-23T12:29:51;27.40;99.90
6106;DHT22;3083;51.508;7.966;2022-07-23T12:32:21;27.30;99.90
6106;DHT22;3083;51.508;7.966;2022-07-23T12:34:50;27.40;99.90
6106;DHT22;3083;51.508;7.966;2022-07-23T12:37:28;27.50;99.90
6106;DHT22;3083;51.508;7.966;2022-07-23T12:39:55;27.60;99.90
6106;DHT22;3083;51.508;7.966;2022-07-23T12:42:22;27.50;99.90
6106;DHT22;3083;51.508;7.966;2022-07-23T12:45:07;27.50;99.90
6106;DHT22;3083;51.508;7.966;2022-07-23T12:47:58;27.40;99.90
6106;DHT22;3083;51.508;7.966;2022-07-23T12:50:40;27.40;99.90
6106;DHT22;3083;51.508;7.966;2022-07-23T12:53:11;27.30;99.90
6106;DHT22;3083;51.508;7.966;2022-07-23T12:55:38;27.30;99.90
6106;DHT22;3083;51.508;7.966;2022-07-23T12:58:08;27.50;99.90
6106;DHT22;3083;51.508;7.966;2022-07-23T13:00:53;27.50;99.90
6106;DHT22;3083;51.508;7.966;2022-07-23T13:03:23;27.30;99.90
6106;DHT22;3083;51.508;7.966;2022-07-23T13:05:50;27.40;99.90
6106;DHT22;3083;51.508;7.966;2022-07-23T13:08:17;27.30;99.90
6106;DHT22;3083;51.508;7.966;2022-07-23T13:10:44;27.30;99.90
6106;DHT22;3083;51.508;7.966;2022-07-23T13:13:14;27.30;99.90
6106;DHT22;3083;51.508;7.966;2022-07-23T13:15:41;27.30;99.90
6106;DHT22;3083;51.508;7.966;2022-07-23T13:18:08;27.30;99.90
6106;DHT22;3083;51.508;7.966;2022-07-23T13:20:37;27.10;99.90
6106;DHT22;3083;51.508;7.966;2022-07-23T13:23:05;27.20;99.90
6106;DHT22;3083;51.508;7.966;2022-07-23T13:25:32;27.30;99.90
6106;DHT22;3083;51.508;7.966;2022-07-23T13:28:00;27.30;99.90
6106;DHT22;3083;51.508;7.966;2022-07-23T13:30:27;27.20;99.90
6106;DHT22;3083;51.508;7.966;2022-07-23T13:32:54;27.30;99.90
6106;DHT22;3083;51.508;7.966;2022-07-23T13:35:21;27.30;99.90
6106;DHT22;3083;51.508;7.966;2022-07-23T13:37:50;27.30;99.90
6106;DHT22;3083;51.508;7.966;2022-07-23T13:40:17;27.40;99.90
6106;DHT22;3083;51.508;7.966;2022-07-23T13:42:44;27.30;99.90
6106;DHT22;3083;51.508;7.966;2022-07-23T13:45:10;27.20;99.90
6106;DHT22;3083;51.508;7.966;2022-07-23T13:47:38;27.00;99.90
6106;DHT22;3083;51.508;7.966;2022-07-23T13:50:06;27.00;99.90
6106;DHT22;3083;51.508;7.966;2022-07-23T13:52:34;27.10;99.90
6106;DHT22;3083;51.508;7.966;2022-07-23T13:55:04;27.10;99.90
6106;DHT22;3083;51.508;7.966;2022-07-23T13:57:32;27.10;99.90
6106;DHT22;3083;51.508;7.966;2022-07-23T13:59:59;27.00;99.90
6106;DHT22;3083;51.508;7.966;2022-07-23T14:02:26;26.90;99.90
6106;DHT22;3083;51.508;7.966;2022-07-23T14:04:53;26.90;99.90
6106;DHT22;3083;51.508;7.966;2022-07-23T14:07:20;26.90;99.90
6106;DHT22;3083;51.508;7.966;2022-07-23T14:09:47;27.00;99.90
6106;DHT22;3083;51.508;7.966;2022-07-23T14:12:16;27.20;99.90
6106;DHT22;3083;51.508;7.966;2022-07-23T14:14:42;27.30;99.90
6106;DHT22;3083;51.508;7.966;2022-07-23T14:17:10;27.50;99.90
6106;DHT22;3083;51.508;7.966;2022-07-23T14:19:37;27.60;99.90
6106;DHT22;3083;51.508;7.966;2022-07-23T14:22:04;27.50;99.90
6106;DHT22;3083;51.508;7.966;2022-07-23T14:24:31;27.50;99.90
6106;DHT22;3083;51.508;7.966;2022-07-23T14:26:59;27.40;99.90
6106;DHT22;3083;51.508;7.966;2022-07-23T14:29:27;27.30;99.90
6106;DHT22;3083;51.508;7.966;2022-07-23T14:31:55;27.40;99.90
6106;DHT22;3083;51.508;7.966;2022-07-23T14:34:22;27.60;99.90
6106;DHT22;3083;51.508;7.966;2022-07-23T14:36:49;27.60;99.90
6106;DHT22;3083;51.508;7.966;2022-07-23T14:39:16;27.50;99.90
6106;DHT22;3083;51.508;7.966;2022-07-23T14:41:43;27.20;99.90
6106;DHT22;3083;51.508;7.966;2022-07-23T14:44:10;27.00;99.90
6106;DHT22;3083;51.508;7.966;2022-07-23T14:46:38;26.90;99.90
6106;DHT22;3083;51.508;7.966;2022-07-23T14:49:05;26.70;99.90
6106;DHT22;3083;51.508;7.966;2022-07-23T14:51:32;26.50;99.90
6106;DHT22;3083;51.508;7.966;2022-07-23T14:53:59;26.50;99.90
6106;DHT22;3083;51.508;7.966;2022-07-23T14:56:26;26.70;99.90
6106;DHT22;3083;51.508;7.966;2022-07-23T14:58:53;26.70;99.90
6106;DHT22;3083;51.508;7.966;2022-07-23T15:01:21;26.80;99.90
6106;DHT22;3083;51.508;7.966;2022-07-23T15:03:50;26.90;99.90
6106;DHT22;3083;51.508;7.966;2022-07-23T15:06:17;26.90;99.90
6106;DHT22;3083;51.508;7.966;2022-07-23T15:08:44;26.90;99.90
6106;DHT22;3083;51.508;7.966;2022-07-23T15:11:11;26.90;99.90
6106;DHT22;3083;51.508;7.966;2022-07-23T15:13:39;27.00;99.90
6106;DHT22;3083;51.508;7.966;2022-07-23T15:16:06;26.90;99.90
6106;DHT22;3083;51.508;7.966;2022-07-23T15:18:33;26.70;99.90
6106;DHT22;3083;51.508;7.966;2022-07-23T15:21:02;26.60;99.90
6106;DHT22;3083;51.508;7.966;2022-07-23T15:23:30;26.50;99.90
6106;DHT22;3083;51.508;7.966;2022-07-23T15:25:57;26.50;99.90
6106;DHT22;3083;51.508;7.966;2022-07-23T15:28:24;26.40;99.90
6106;DHT22;3083;51.508;7.966;2022-07-23T15:30:51;26.40;99.90
6106;DHT22;3083;51.508;7.966;2022-07-23T15:33:19;26.40;99.90
6106;DHT22;3083;51.508;7.966;2022-07-23T15:35:46;26.40;99.90
6106;DHT22;3083;51.508;7.966;2022-07-23T15:38:15;26.40;99.90
6106;DHT22;3083;51.508;7.966;2022-07-23T15:40:41;26.40;99.90
6106;DHT22;3083;51.508;7.966;2022-07-23T15:43:08;26.40;99.90
6106;DHT22;3083;51.508;7.966;2022-07-23T15:45:35;26.40;99.90
6106;DHT22;3083;51.508;7.966;2022-07-23T15:48:03;26.40;99.90
6106;DHT22;3083;51.508;7.966;2022-07-23T15:50:30;26.50;99.90
6106;DHT22;3083;51.508;7.966;2022-07-23T15:52:57;26.40;99.90
6106;DHT22;3083;51.508;7.966;2022-07-23T15:55:25;26.40;99.90
6106;DHT22;3083;51.508;7.966;2022-07-23T15:57:52;26.30;99.90
6106;DHT22;3083;51.508;7.966;2022-07-23T16:00:19;26.30;99.90
6106;DHT22;3083;51.508;7.966;2022-07-23T16:02:46;26.30;99.90
6106;DHT22;3083;51.508;7.966;2022-07-23T16:05:13;26.20;99.90
6106;DHT22;3083;51.508;7.966;2022-07-23T16:07:59;26.20;99.90
6106;DHT22;3083;51.508;7.966;2022-07-23T16:10:28;26.20;99.90
6106;DHT22;3083;51.508;7.966;2022-07-23T16:12:55;26.10;99.90